Aberdeen, SD (57401)

8:29 PM CST on February 10, 2016 (GMT -0600)
Simmons | | Change Station
CLOSE
Current Station
Personal Weather Station
Location: Aberdeen, SD
Elevation: 1312 ft
Nearby Weather Stations

Elev 1312 ft 45.45 °N, 98.49 °W | Updated 58 seconds ago

Overcast
Overcast
11.8 °F
Feels Like 1 °F
N
6.8
Wind Variable Wind from NNE

Today
High -- | Low -- °F
--% Chance of Precip.
Yesterday
High -- | Low -- °F
Precip. -- in
Pressure 30.29 in
Visibility 10.0 miles
Clouds Overcast 1500 ft
Windchill 1 °F
Dew Point 11 °F
Humidity 97%
Rainfall 0.00 in
Snow Depth Not available.
7:43 AM 5:53 PM
Waxing Crescent, 8% visible
METAR KABR 110153Z AUTO 04008KT 10SM OVC015 M10/M13 A3021 RMK AO2 SNB0054E27 SLP256 P0000 T11001128
Pressure 30.29 in
Visibility 10.0 miles
Clouds Overcast 1500 ft
Windchill 1 °F
Dew Point 11 °F
Humidity 97%
Rainfall 0.00 in
Snow Depth Not available.
7:43 AM 5:53 PM
Waxing Crescent, 8% visible
METAR KABR 110153Z AUTO 04008KT 10SM OVC015 M10/M13 A3021 RMK AO2 SNB0054E27 SLP256 P0000 T11001128

10-Day Weather Forecast

Almanac

Astronomy

Feb. 10, 2016 Rise Set
Actual Time
Civil Twilight
Nautical Twilight
Astronomical Twilight
Moon
Length of Visible Light
Length of Day
Tomorrow will be .
, % of the Moon is Illuminated

Today's Extremes

State Highs State Lows

Community

WunderPhotos

Upload Photos

1,891,984 photos uploaded!

WunderBlog® & News

Nearby

Air Quality

  Air Quality AQ Index Pollutant
Not available.

Snow Depth

Station Depth Elevation

Earthquake Activity

City Distance Mag. Time & Date
Minimum magnitude displayed is 2.5.

Coastal Water Temperatures

Place Temperature

Stations

Nearby Weather Stations

Station Location Temp. Windchill Dew Point Humidity Wind Precip. Elev Updated Type
                   

Watches & Warnings

There are currently no watches in effect.